createdAt,value
2019-05-15T00:02:30.724Z,8.58
2019-05-15T00:05:05.877Z,8.73
2019-05-15T00:07:41.596Z,8.62
2019-05-15T00:10:18.139Z,8.57
2019-05-15T00:12:53.502Z,8.57
2019-05-15T00:15:28.574Z,8.51
2019-05-15T00:18:03.542Z,8.46
2019-05-15T00:20:39.397Z,8.57
2019-05-15T00:23:14.762Z,8.31
2019-05-15T00:25:49.942Z,8.20
2019-05-15T00:28:24.962Z,8.29
2019-05-15T00:30:59.968Z,8.21
2019-05-15T00:33:36.510Z,8.15
2019-05-15T00:36:11.452Z,8.16
2019-05-15T00:38:48.298Z,7.98
2019-05-15T00:41:23.898Z,7.95
2019-05-15T00:43:58.862Z,7.91
2019-05-15T00:46:34.057Z,8.05
2019-05-15T00:49:09.097Z,8.08
2019-05-15T00:51:44.037Z,8.00
2019-05-15T00:54:19.313Z,8.05
2019-05-15T00:56:55.222Z,7.93
2019-05-15T00:59:30.308Z,7.97
2019-05-15T01:02:05.368Z,7.89
2019-05-15T01:04:40.471Z,7.94
2019-05-15T01:07:15.499Z,7.86
2019-05-15T01:09:50.472Z,7.82
2019-05-15T01:12:25.557Z,7.87
2019-05-15T01:15:00.513Z,7.94
2019-05-15T01:17:39.092Z,7.76
2019-05-15T01:20:13.073Z,7.77
2019-05-15T01:22:48.541Z,7.82
2019-05-15T01:25:23.711Z,7.81
2019-05-15T01:27:58.730Z,7.75
2019-05-15T01:30:33.979Z,7.71
2019-05-15T01:33:10.612Z,7.59
2019-05-15T01:35:45.549Z,7.51
2019-05-15T01:38:20.474Z,7.55
2019-05-15T01:40:55.997Z,7.46
2019-05-15T01:43:31.017Z,7.58
2019-05-15T01:46:08.207Z,7.59
2019-05-15T01:48:42.719Z,7.44
2019-05-15T01:51:18.490Z,7.45
2019-05-15T01:53:53.665Z,7.38
2019-05-15T01:56:29.311Z,7.44
2019-05-15T01:59:04.536Z,7.32
2019-05-15T02:01:39.493Z,7.21
2019-05-15T02:04:14.437Z,7.06
2019-05-15T02:06:49.497Z,7.23
2019-05-15T02:09:24.524Z,7.01
2019-05-15T02:11:59.598Z,7.00
2019-05-15T02:14:35.273Z,6.96
2019-05-15T02:17:10.351Z,6.80
2019-05-15T02:19:45.375Z,6.87
2019-05-15T02:22:20.425Z,6.73
2019-05-15T02:24:55.467Z,6.71
2019-05-15T02:27:30.404Z,6.77
2019-05-15T02:30:17.874Z,6.87
2019-05-15T02:32:42.728Z,6.66
2019-05-15T02:35:18.545Z,6.58
2019-05-15T02:37:53.735Z,6.61
2019-05-15T02:40:29.413Z,6.65
2019-05-15T02:43:04.773Z,6.50
2019-05-15T02:45:41.917Z,6.51
2019-05-15T02:48:19.713Z,6.63
2019-05-15T02:50:53.056Z,6.48
2019-05-15T02:53:29.889Z,6.45
2019-05-15T02:56:04.720Z,6.44
2019-05-15T02:58:40.200Z,6.34
2019-05-15T03:01:18.735Z,6.29
2019-05-15T03:03:53.373Z,6.29
2019-05-15T03:06:30.003Z,6.28
2019-05-15T03:09:09.163Z,6.15
2019-05-15T03:11:44.314Z,6.15
2019-05-15T03:14:21.436Z,5.90
2019-05-15T03:16:59.569Z,5.95
2019-05-15T03:19:33.668Z,6.05
2019-05-15T03:22:09.701Z,5.96
2019-05-15T03:24:45.812Z,5.93
2019-05-15T03:27:21.530Z,5.98
2019-05-15T03:29:59.328Z,6.01
2019-05-15T03:32:55.780Z,5.84
2019-05-15T03:35:24.749Z,5.76
2019-05-15T03:38:02.358Z,5.80
2019-05-15T03:40:39.597Z,5.71
2019-05-15T03:43:20.057Z,5.70
2019-05-15T03:45:55.079Z,5.57
2019-05-15T03:48:30.350Z,5.68
2019-05-15T03:51:08.895Z,5.71
2019-05-15T03:53:44.797Z,5.85
2019-05-15T03:56:19.866Z,5.91
2019-05-15T03:58:54.811Z,5.82
2019-05-15T04:01:38.494Z,5.88
2019-05-15T04:04:30.453Z,5.82
2019-05-15T04:10:23.110Z,5.87
2019-05-15T04:13:00.101Z,5.99
2019-05-15T04:15:39.318Z,5.92
2019-05-15T04:18:15.044Z,5.92
2019-05-15T04:20:50.559Z,5.93
2019-05-15T04:23:38.809Z,6.04
2019-05-15T04:26:14.410Z,6.07
2019-05-15T04:28:53.095Z,6.13
2019-05-15T04:31:35.407Z,6.22
2019-05-15T04:34:10.592Z,6.34
2019-05-15T04:36:45.530Z,6.28
2019-05-15T04:39:20.507Z,6.47
2019-05-15T04:41:58.878Z,6.66
2019-05-15T04:44:33.192Z,6.91
2019-05-15T04:47:09.667Z,7.08
2019-05-15T04:49:44.962Z,7.13
2019-05-15T04:52:19.899Z,7.23
2019-05-15T04:54:59.610Z,7.44
2019-05-15T04:57:34.300Z,7.47
2019-05-15T05:00:10.355Z,7.59
2019-05-15T05:02:45.492Z,7.75
2019-05-15T05:05:20.567Z,7.88
2019-05-15T05:07:55.727Z,8.03
2019-05-15T05:10:31.704Z,8.19
2019-05-15T05:13:08.759Z,8.36
2019-05-15T05:15:43.505Z,8.50
2019-05-15T05:18:18.974Z,8.67
2019-05-15T05:20:57.620Z,8.85
2019-05-15T05:23:32.021Z,8.94
2019-05-15T05:26:10.599Z,9.17
2019-05-15T05:28:43.644Z,9.27
2019-05-15T05:31:19.370Z,9.33
2019-05-15T05:33:54.534Z,9.53
2019-05-15T05:36:29.600Z,9.76
2019-05-15T05:39:06.212Z,9.91
2019-05-15T05:41:41.267Z,9.88
2019-05-15T05:44:18.711Z,10.06
2019-05-15T05:46:53.080Z,10.22
2019-05-15T05:49:28.833Z,10.34
2019-05-15T05:52:04.137Z,10.35
2019-05-15T05:54:39.882Z,10.57
2019-05-15T05:57:15.781Z,10.52
2019-05-15T05:59:53.047Z,10.80
2019-05-15T06:02:28.120Z,10.85
2019-05-15T06:05:03.298Z,10.95
2019-05-15T06:07:38.903Z,11.07
2019-05-15T06:10:14.316Z,11.24
2019-05-15T06:12:49.254Z,11.38
2019-05-15T06:15:24.254Z,11.53
2019-05-15T06:17:59.998Z,11.57
2019-05-15T06:20:35.419Z,11.62
2019-05-15T06:23:10.446Z,11.85
2019-05-15T06:25:45.537Z,11.99
2019-05-15T06:28:20.656Z,12.15
2019-05-15T06:31:00.544Z,12.19
2019-05-15T06:33:33.551Z,12.28
2019-05-15T06:36:09.117Z,12.38
2019-05-15T06:38:45.432Z,12.31
2019-05-15T06:41:20.422Z,12.47
2019-05-15T06:43:55.569Z,12.40
2019-05-15T06:46:30.641Z,12.60
2019-05-15T06:49:05.722Z,12.86
2019-05-15T06:51:41.790Z,12.84
2019-05-15T06:54:18.955Z,12.87
2019-05-15T06:56:53.634Z,13.19
2019-05-15T06:59:28.939Z,13.14
2019-05-15T07:02:03.924Z,13.12
2019-05-15T07:04:39.000Z,13.21
2019-05-15T07:07:13.956Z,13.47
2019-05-15T07:09:48.927Z,13.56
2019-05-15T07:12:27.986Z,13.47
2019-05-15T07:15:02.356Z,13.65
2019-05-15T07:17:39.236Z,13.53
2019-05-15T07:20:14.718Z,13.52
2019-05-15T07:22:49.854Z,13.68
2019-05-15T07:25:24.924Z,13.60
2019-05-15T07:27:59.882Z,13.89
2019-05-15T07:30:34.872Z,13.86
2019-05-15T07:33:09.935Z,13.82
2019-05-15T07:35:44.938Z,13.83
2019-05-15T07:38:21.094Z,14.05
2019-05-15T07:41:02.992Z,14.03
2019-05-15T07:43:33.374Z,14.27
2019-05-15T07:46:08.679Z,14.52
2019-05-15T07:48:44.113Z,14.70
2019-05-15T07:51:19.362Z,14.68
2019-05-15T07:53:54.348Z,14.75
2019-05-15T07:56:29.468Z,14.59
2019-05-15T07:59:04.554Z,14.79
2019-05-15T08:01:39.549Z,14.66
2019-05-15T08:04:26.111Z,14.81
2019-05-15T08:06:51.169Z,15.06
2019-05-15T08:09:28.281Z,15.09
2019-05-15T08:12:03.436Z,15.13
2019-05-15T08:14:38.936Z,15.24
2019-05-15T08:17:14.057Z,15.21
2019-05-15T08:19:49.152Z,15.41
2019-05-15T08:22:24.202Z,15.37
2019-05-15T08:24:59.281Z,15.43
2019-05-15T08:27:34.331Z,15.38
2019-05-15T08:30:12.704Z,15.38
2019-05-15T08:32:51.389Z,15.50
2019-05-15T08:35:25.283Z,15.88
2019-05-15T08:38:00.316Z,15.93
2019-05-15T08:40:40.712Z,15.90
2019-05-15T08:43:12.700Z,16.14
2019-05-15T08:45:49.488Z,16.22
2019-05-15T08:48:24.700Z,16.15
2019-05-15T08:50:59.716Z,16.14
2019-05-15T08:53:34.780Z,16.25
2019-05-15T08:56:10.034Z,16.37
2019-05-15T08:58:45.072Z,16.29
2019-05-15T09:01:20.066Z,16.27
2019-05-15T09:03:55.132Z,16.26
2019-05-15T09:06:30.337Z,16.50
2019-05-15T09:09:11.306Z,16.64
2019-05-15T09:11:48.330Z,16.70
2019-05-15T09:14:23.163Z,16.62
2019-05-15T09:16:58.395Z,16.48
2019-05-15T09:19:33.545Z,16.70
2019-05-15T09:22:09.209Z,16.86
2019-05-15T09:24:44.440Z,17.01
2019-05-15T09:27:19.678Z,16.71
2019-05-15T09:29:54.652Z,16.88
2019-05-15T09:32:29.775Z,17.01
2019-05-15T09:35:04.993Z,16.80
2019-05-15T09:37:40.208Z,17.13
2019-05-15T09:40:15.192Z,17.07
2019-05-15T09:42:50.297Z,17.20
2019-05-15T09:45:25.525Z,17.47
2019-05-15T09:48:00.784Z,17.43
2019-05-15T09:50:39.669Z,17.56
2019-05-15T09:53:13.603Z,17.72
2019-05-15T09:55:49.710Z,17.72
2019-05-15T09:58:24.916Z,17.70
2019-05-15T10:00:59.936Z,17.44
2019-05-15T10:03:35.767Z,17.41
2019-05-15T10:06:10.746Z,17.37
2019-05-15T10:08:48.729Z,17.33
2019-05-15T10:11:22.543Z,17.66
2019-05-15T10:13:58.514Z,17.71
2019-05-15T10:16:33.874Z,17.94
2019-05-15T10:19:09.096Z,18.01
2019-05-15T10:21:44.297Z,18.08
2019-05-15T10:24:19.700Z,18.35
2019-05-15T10:26:54.715Z,18.10
2019-05-15T10:29:29.785Z,18.28
2019-05-15T10:32:04.888Z,18.34
2019-05-15T10:34:40.030Z,18.48
2019-05-15T10:37:15.090Z,18.36
2019-05-15T10:39:52.768Z,17.51
2019-05-15T10:42:28.993Z,17.02
2019-05-15T10:45:03.576Z,16.86
2019-05-15T10:47:39.104Z,17.72
2019-05-15T10:50:19.068Z,18.45
2019-05-15T10:52:53.541Z,19.00
2019-05-15T10:56:02.752Z,19.21
2019-05-15T10:58:39.282Z,19.31
2019-05-15T11:01:14.841Z,19.82
2019-05-15T11:03:50.139Z,19.45
2019-05-15T11:06:25.257Z,19.24
2019-05-15T11:09:00.253Z,18.98
2019-05-15T11:11:35.796Z,18.93
2019-05-15T11:14:11.079Z,18.71
2019-05-15T11:16:48.405Z,18.74
2019-05-15T11:19:22.748Z,19.65
2019-05-15T11:21:58.658Z,20.60
2019-05-15T11:24:33.979Z,21.45
2019-05-15T11:27:09.968Z,21.71
2019-05-15T11:29:47.715Z,21.64
2019-05-15T11:32:23.539Z,21.96
2019-05-15T11:34:59.165Z,21.50
2019-05-15T11:37:34.234Z,21.95
2019-05-15T11:40:10.766Z,23.03
2019-05-15T11:42:48.766Z,22.61
2019-05-15T11:45:25.361Z,22.33
2019-05-15T11:48:01.079Z,21.87
2019-05-15T11:50:40.053Z,22.14
2019-05-15T11:53:14.665Z,22.84
2019-05-15T11:55:49.775Z,21.53
2019-05-15T11:58:24.939Z,20.83
2019-05-15T12:00:59.990Z,20.43
2019-05-15T12:03:35.120Z,21.67
2019-05-15T12:06:18.035Z,23.00
2019-05-15T12:08:46.840Z,23.40
2019-05-15T12:11:33.337Z,23.74
2019-05-15T12:13:58.646Z,23.39
2019-05-15T12:16:36.205Z,22.12
2019-05-15T12:19:16.971Z,20.81
2019-05-15T12:21:48.827Z,20.70
2019-05-15T12:24:32.787Z,21.73
2019-05-15T12:27:14.132Z,22.35
2019-05-15T12:29:39.842Z,22.67
2019-05-15T12:32:28.476Z,22.25
2019-05-15T12:34:52.929Z,21.16
2019-05-15T12:37:28.503Z,20.59
2019-05-15T13:00:59.683Z,21.29
2019-05-15T13:03:34.708Z,20.74
2019-05-15T13:06:09.817Z,22.43
2019-05-15T13:08:44.926Z,23.77
2019-05-15T13:11:20.017Z,23.61
2019-05-15T13:13:54.987Z,22.36
2019-05-15T13:16:30.084Z,22.16
2019-05-15T13:19:05.121Z,23.72
2019-05-15T13:21:40.432Z,25.35
2019-05-15T13:24:15.427Z,26.04
2019-05-15T13:26:50.516Z,26.37
2019-05-15T13:29:25.565Z,27.06
2019-05-15T13:32:00.552Z,26.25
2019-05-15T13:34:35.679Z,26.95
2019-05-15T13:37:10.770Z,27.93
2019-05-15T13:39:48.391Z,28.10
2019-05-15T13:42:22.537Z,27.59
2019-05-15T13:44:58.675Z,25.60
2019-05-15T13:47:34.505Z,24.66
2019-05-15T13:50:11.395Z,24.62
2019-05-15T13:52:48.195Z,24.53
2019-05-15T13:55:26.080Z,24.70
2019-05-15T13:58:01.106Z,25.14
2019-05-15T14:00:38.941Z,26.21
2019-05-15T14:03:13.213Z,27.23
2019-05-15T14:05:49.750Z,27.44
2019-05-15T14:08:24.977Z,27.07
2019-05-15T14:11:00.406Z,26.66
2019-05-15T14:13:35.365Z,27.74
2019-05-15T14:16:10.387Z,28.65
2019-05-15T14:18:47.851Z,27.59
2019-05-15T14:21:22.265Z,26.49
2019-05-15T14:23:58.872Z,25.39
2019-05-15T14:26:34.134Z,24.14
2019-05-15T14:29:09.882Z,23.15
2019-05-15T14:31:44.971Z,22.42
2019-05-15T14:34:19.964Z,22.11
2019-05-15T14:36:55.349Z,21.06
2019-05-15T14:39:30.329Z,20.51
2019-05-15T14:42:05.468Z,20.20
2019-05-15T14:44:40.594Z,20.16
2019-05-15T14:47:16.075Z,20.16
2019-05-15T14:49:51.043Z,20.43
2019-05-15T14:52:28.058Z,20.30
2019-05-15T14:55:03.559Z,19.87
2019-05-15T14:57:39.675Z,19.45
2019-05-15T15:00:14.992Z,19.21
2019-05-15T15:02:50.753Z,19.54
2019-05-15T15:05:27.135Z,19.80
2019-05-15T15:08:17.369Z,19.60
2019-05-15T15:10:41.716Z,19.35
2019-05-15T15:13:18.257Z,19.00
2019-05-15T15:15:53.706Z,18.97
2019-05-15T15:18:28.806Z,18.99
2019-05-15T15:21:04.894Z,19.05
2019-05-15T15:23:39.920Z,18.95
2019-05-15T15:26:15.195Z,18.79
2019-05-15T15:28:50.193Z,18.65
2019-05-15T15:31:25.347Z,18.86
2019-05-15T15:34:00.566Z,19.16
2019-05-15T15:36:37.920Z,19.38
2019-05-15T15:39:12.608Z,19.09
2019-05-15T15:41:48.583Z,18.87
2019-05-15T15:44:23.683Z,18.88
2019-05-15T15:46:59.426Z,18.57
2019-05-15T15:49:34.734Z,18.43
2019-05-15T15:52:09.822Z,18.31
2019-05-15T15:54:44.908Z,18.21
2019-05-15T15:57:20.925Z,18.32
2019-05-15T15:59:56.032Z,18.13
2019-05-15T16:02:31.006Z,18.15
2019-05-15T16:05:08.181Z,18.00
2019-05-15T16:07:43.679Z,18.16
2019-05-15T16:10:19.216Z,17.97
2019-05-15T16:12:54.208Z,17.91
2019-05-15T16:15:29.977Z,17.92
2019-05-15T16:18:05.147Z,17.90
2019-05-15T16:20:40.190Z,17.76
2019-05-15T16:23:15.272Z,17.83
2019-05-15T16:25:50.263Z,18.03
2019-05-15T16:28:25.503Z,17.86
2019-05-15T16:31:00.615Z,17.93
2019-05-15T16:33:39.011Z,18.06
2019-05-15T16:36:14.270Z,18.38
2019-05-15T16:38:49.344Z,18.30
2019-05-15T16:41:25.116Z,18.44
2019-05-15T16:44:00.310Z,18.34
2019-05-15T16:46:35.934Z,18.63
2019-05-15T16:49:11.072Z,18.76
2019-05-15T16:51:49.016Z,18.37
2019-05-15T16:54:23.334Z,17.93
2019-05-15T16:56:59.696Z,17.49
2019-05-15T16:59:36.059Z,17.27
2019-05-15T17:02:11.951Z,17.32
2019-05-15T17:04:48.838Z,17.34
2019-05-15T17:07:24.213Z,17.00
2019-05-15T17:09:59.512Z,17.31
2019-05-15T17:12:34.740Z,17.38
2019-05-15T17:15:10.528Z,17.30
2019-05-15T17:17:45.605Z,17.24
2019-05-15T17:20:20.928Z,17.40
2019-05-15T17:22:57.925Z,18.02
2019-05-15T17:25:38.293Z,17.80
2019-05-15T17:28:13.069Z,17.71
2019-05-15T17:30:48.792Z,17.37
2019-05-15T17:33:24.042Z,17.28
2019-05-15T17:35:59.696Z,17.34
2019-05-15T17:38:38.131Z,17.24
2019-05-15T17:41:13.372Z,17.29
2019-05-15T17:43:48.685Z,17.54
2019-05-15T17:46:23.909Z,17.45
2019-05-15T17:49:06.799Z,17.46
2019-05-15T17:51:38.347Z,17.71
2019-05-15T17:54:14.679Z,17.51
2019-05-15T17:56:49.851Z,17.20
2019-05-15T17:59:25.013Z,16.76
2019-05-15T18:02:00.885Z,16.71
2019-05-15T18:04:38.571Z,16.60
2019-05-15T18:07:12.891Z,16.63
2019-05-15T18:09:53.400Z,16.75
2019-05-15T18:12:25.002Z,16.83
2019-05-15T18:15:00.908Z,16.22
2019-05-15T18:17:39.215Z,15.95
2019-05-15T18:20:15.384Z,15.97
2019-05-15T18:22:50.728Z,15.79
2019-05-15T18:25:25.732Z,15.30
2019-05-15T18:28:00.987Z,15.17
2019-05-15T18:30:36.122Z,15.05
2019-05-15T18:33:11.884Z,15.19
2019-05-15T18:35:48.630Z,15.38
2019-05-15T18:38:23.870Z,15.39
2019-05-15T18:40:59.085Z,15.08
2019-05-15T18:43:34.204Z,14.72
2019-05-15T18:46:10.078Z,14.69
2019-05-15T18:48:45.444Z,14.59
2019-05-15T18:51:20.694Z,14.83
2019-05-15T18:53:58.810Z,14.81
2019-05-15T18:56:34.234Z,14.66
2019-05-15T18:59:09.514Z,14.45
2019-05-15T19:01:44.507Z,14.62
2019-05-15T19:04:22.782Z,14.49
2019-05-15T19:06:58.372Z,14.49
2019-05-15T19:09:33.692Z,14.53
2019-05-15T19:12:09.307Z,14.51
2019-05-15T19:14:44.798Z,14.50
2019-05-15T19:17:19.922Z,14.61
2019-05-15T19:19:55.018Z,14.53
2019-05-15T19:22:30.182Z,14.58
2019-05-15T19:25:05.638Z,14.69
2019-05-15T19:27:40.962Z,14.65
2019-05-15T19:30:19.059Z,14.62
2019-05-15T19:32:55.038Z,14.40
2019-05-15T19:35:30.233Z,14.32
2019-05-15T19:38:05.442Z,14.27
2019-05-15T19:40:40.660Z,14.21
2019-05-15T19:43:18.083Z,14.14
2019-05-15T19:45:52.583Z,14.19
2019-05-15T19:48:27.645Z,14.25
2019-05-15T19:51:04.661Z,14.20
2019-05-15T19:53:39.847Z,14.08
2019-05-15T19:56:15.242Z,14.22
2019-05-15T19:58:50.601Z,14.17
2019-05-15T20:01:28.046Z,14.03
2019-05-15T20:04:02.777Z,14.00
2019-05-15T20:06:38.719Z,13.82
2019-05-15T20:09:15.012Z,13.71
2019-05-15T20:11:50.189Z,13.61
2019-05-15T20:14:25.382Z,13.64
2019-05-15T20:17:01.173Z,13.55
2019-05-15T20:19:38.268Z,13.59
2019-05-15T20:22:13.147Z,13.52
2019-05-15T20:24:48.377Z,13.58
2019-05-15T20:27:23.544Z,13.46
2019-05-15T20:30:01.428Z,13.48
2019-05-15T20:32:39.314Z,13.44
2019-05-15T20:35:15.862Z,13.22
2019-05-15T20:37:50.869Z,13.20
2019-05-15T20:40:26.034Z,13.24
2019-05-15T20:43:01.069Z,13.12
2019-05-15T20:45:37.169Z,13.12
2019-05-15T20:48:12.260Z,13.03
2019-05-15T20:50:48.242Z,12.97
2019-05-15T20:53:23.454Z,12.90
2019-05-15T20:55:59.013Z,12.69
2019-05-15T20:58:34.291Z,12.74
2019-05-15T21:01:10.138Z,12.64
2019-05-15T21:03:45.240Z,12.49
2019-05-15T21:06:20.286Z,12.48
2019-05-15T21:08:55.314Z,12.31
2019-05-15T21:11:30.447Z,12.20
2019-05-15T21:14:08.537Z,12.16
2019-05-15T21:16:43.001Z,12.16
2019-05-15T21:19:18.972Z,12.18
2019-05-15T21:21:54.089Z,12.14
2019-05-15T21:24:29.213Z,12.04
2019-05-15T21:27:04.203Z,12.02
2019-05-15T21:29:40.659Z,11.91
2019-05-15T21:32:15.751Z,12.02
2019-05-15T21:34:50.860Z,11.99
2019-05-15T21:37:27.527Z,12.09
2019-05-15T21:40:02.590Z,12.07
2019-05-15T21:42:38.874Z,12.04
2019-05-15T21:45:15.084Z,12.01
2019-05-15T21:47:50.223Z,11.97
2019-05-15T21:50:25.218Z,11.78
2019-05-15T21:53:00.267Z,11.92
2019-05-15T21:55:35.868Z,11.95
2019-05-15T21:58:10.951Z,12.08
2019-05-15T22:00:50.831Z,12.08
2019-05-15T22:03:29.141Z,12.08
2019-05-15T22:06:04.532Z,12.04
2019-05-15T22:08:39.563Z,12.04
2019-05-15T22:11:15.031Z,12.16
2019-05-15T22:13:50.073Z,12.14
2019-05-15T22:16:25.233Z,12.16
2019-05-15T22:19:00.243Z,12.11
2019-05-15T22:21:35.371Z,12.24
2019-05-15T22:24:10.453Z,12.23
2019-05-15T22:26:47.783Z,12.26
2019-05-15T22:29:22.288Z,12.35
2019-05-15T22:31:59.066Z,12.26
2019-05-15T22:34:34.253Z,12.26
2019-05-15T22:37:09.481Z,12.23
2019-05-15T22:39:44.731Z,12.20
2019-05-15T22:42:20.821Z,12.11
2019-05-15T22:44:55.866Z,12.16
2019-05-15T22:47:31.041Z,12.11
2019-05-15T22:50:08.357Z,12.11
2019-05-15T22:52:43.559Z,12.13
2019-05-15T22:55:18.648Z,12.15
2019-05-15T22:57:53.795Z,12.11
2019-05-15T23:00:29.148Z,12.07
2019-05-15T23:03:04.434Z,12.01
2019-05-15T23:05:39.420Z,11.95
2019-05-15T23:08:15.421Z,11.85
2019-05-15T23:10:50.395Z,11.80
2019-05-15T23:13:25.413Z,11.61
2019-05-15T23:16:01.170Z,11.59
2019-05-15T23:18:36.277Z,11.59
2019-05-15T23:21:11.391Z,11.64
2019-05-15T23:23:48.516Z,11.67
2019-05-15T23:26:23.237Z,11.49
2019-05-15T23:28:58.616Z,11.36
2019-05-15T23:31:33.800Z,11.42
2019-05-15T23:34:09.257Z,11.38
2019-05-15T23:36:44.349Z,11.35
2019-05-15T23:39:19.348Z,11.30
2019-05-15T23:41:54.545Z,11.28
2019-05-15T23:44:29.529Z,11.28
2019-05-15T23:47:04.601Z,11.27
2019-05-15T23:49:39.686Z,11.24
2019-05-15T23:52:14.765Z,11.20
2019-05-15T23:54:49.855Z,11.19
2019-05-15T23:57:28.677Z,11.26
